createdAt,value
2022-08-26T00:01:56.797Z,20.00
2022-08-26T00:04:25.779Z,22.40
2022-08-26T00:06:57.238Z,23.98
2022-08-26T00:09:25.383Z,18.33
2022-08-26T00:11:54.407Z,20.20
2022-08-26T00:14:27.017Z,21.63
2022-08-26T00:16:57.007Z,23.88
2022-08-26T00:19:25.172Z,21.52
2022-08-26T00:21:53.488Z,23.10
2022-08-26T00:24:21.880Z,27.15
2022-08-26T00:26:50.081Z,21.77
2022-08-26T00:29:19.531Z,18.25
2022-08-26T00:31:48.780Z,20.50
2022-08-26T00:34:19.294Z,18.75
2022-08-26T00:36:47.493Z,19.05
2022-08-26T00:39:16.807Z,21.08
2022-08-26T00:41:44.149Z,23.25
2022-08-26T00:44:12.251Z,20.80
2022-08-26T00:46:46.372Z,20.00
2022-08-26T00:49:24.658Z,25.67
2022-08-26T00:51:55.311Z,20.58
2022-08-26T00:54:27.404Z,21.80
2022-08-26T00:57:02.631Z,23.77
2022-08-26T00:59:33.263Z,24.52
2022-08-26T01:02:02.697Z,22.75
2022-08-26T01:04:33.608Z,19.30
2022-08-26T01:07:01.601Z,25.15
2022-08-26T01:09:30.967Z,23.27
2022-08-26T01:12:01.340Z,26.63
2022-08-26T01:14:32.850Z,19.30
2022-08-26T01:17:05.024Z,23.17
2022-08-26T01:19:40.626Z,26.10
2022-08-26T01:22:26.618Z,16.73
2022-08-26T01:24:56.930Z,23.08
2022-08-26T01:27:27.441Z,21.33
2022-08-26T01:30:01.854Z,20.85
2022-08-26T01:32:33.105Z,22.48
2022-08-26T01:35:01.570Z,22.85
2022-08-26T01:37:34.976Z,21.88
2022-08-26T01:40:04.314Z,19.70
2022-08-26T01:42:31.783Z,24.80
2022-08-26T01:45:07.213Z,26.55
2022-08-26T01:47:36.581Z,26.70
2022-08-26T01:50:11.159Z,21.67
2022-08-26T01:52:42.714Z,20.42
2022-08-26T01:55:13.668Z,19.85
2022-08-26T01:57:57.493Z,25.90
2022-08-26T02:00:26.668Z,21.92
2022-08-26T02:03:16.491Z,24.73
2022-08-26T02:06:00.010Z,25.38
2022-08-26T02:08:42.133Z,20.17
2022-08-26T02:13:55.635Z,24.60
2022-08-26T02:16:26.200Z,21.08
2022-08-26T02:18:55.313Z,21.45
2022-08-26T02:21:24.941Z,27.40
2022-08-26T02:23:53.086Z,25.13
2022-08-26T02:26:27.098Z,19.63
2022-08-26T02:29:02.685Z,20.77
2022-08-26T02:31:30.133Z,22.08
2022-08-26T02:34:08.459Z,26.83
2022-08-26T02:36:38.183Z,22.98
2022-08-26T02:39:07.344Z,23.42
2022-08-26T02:41:35.042Z,21.30
2022-08-26T02:44:11.734Z,23.35
2022-08-26T02:46:39.852Z,22.80
2022-08-26T02:49:07.578Z,22.75
2022-08-26T02:51:34.843Z,26.92
2022-08-26T02:54:02.320Z,25.73
2022-08-26T02:56:29.639Z,21.65
2022-08-26T02:58:57.158Z,22.45
2022-08-26T03:01:32.492Z,23.23
2022-08-26T03:04:02.139Z,20.83
2022-08-26T03:06:29.958Z,18.35
2022-08-26T03:08:57.249Z,22.02
2022-08-26T03:11:29.629Z,24.23
2022-08-26T03:14:00.714Z,31.08
2022-08-26T03:16:37.748Z,28.23
2022-08-26T03:19:07.772Z,21.88
2022-08-26T03:21:36.965Z,21.90
2022-08-26T03:24:05.566Z,23.90
2022-08-26T03:26:32.858Z,23.60
2022-08-26T03:29:19.046Z,23.63
2022-08-26T03:31:46.989Z,20.67
2022-08-26T03:34:15.048Z,28.67
2022-08-26T03:36:42.530Z,24.75
2022-08-26T03:39:11.281Z,24.40
2022-08-26T03:41:38.867Z,29.20
2022-08-26T03:44:08.941Z,25.30
2022-08-26T03:46:37.280Z,26.05
2022-08-26T03:49:06.164Z,24.02
2022-08-26T03:51:34.928Z,27.88
2022-08-26T03:54:08.374Z,34.53
2022-08-26T03:56:36.760Z,22.70
2022-08-26T03:59:05.116Z,22.52
2022-08-26T04:01:35.386Z,30.88
2022-08-26T04:04:03.336Z,22.98
2022-08-26T04:06:43.092Z,25.27
2022-08-26T04:09:19.480Z,27.70
2022-08-26T04:11:50.545Z,24.85
2022-08-26T04:14:21.885Z,25.70
2022-08-26T04:16:50.158Z,20.60
2022-08-26T04:19:19.301Z,20.25
2022-08-26T04:21:49.117Z,25.13
2022-08-26T04:24:17.636Z,25.63
2022-08-26T04:26:45.283Z,29.30
2022-08-26T04:29:16.123Z,32.67
2022-08-26T04:31:44.229Z,30.85
2022-08-26T04:34:11.957Z,24.70
2022-08-26T04:36:41.979Z,30.20
2022-08-26T04:39:12.446Z,26.52
2022-08-26T04:41:40.144Z,29.55
2022-08-26T04:44:07.895Z,24.45
2022-08-26T04:46:35.798Z,26.45
2022-08-26T04:51:36.676Z,26.52
2022-08-26T04:54:07.114Z,24.83
2022-08-26T04:56:37.621Z,25.27
2022-08-26T04:59:08.120Z,25.40
2022-08-26T05:01:46.715Z,22.92
2022-08-26T05:04:18.783Z,23.90
2022-08-26T05:06:47.799Z,23.25
2022-08-26T05:09:15.427Z,26.60
2022-08-26T05:11:42.947Z,26.88
2022-08-26T05:14:10.348Z,24.45
2022-08-26T05:16:40.432Z,20.95
2022-08-26T05:19:08.536Z,30.17
2022-08-26T05:21:36.698Z,27.45
2022-08-26T05:24:04.809Z,23.10
2022-08-26T05:26:32.961Z,23.65
2022-08-26T05:29:01.567Z,24.00
2022-08-26T05:31:31.975Z,24.90
2022-08-26T05:34:03.651Z,26.45
2022-08-26T05:36:34.872Z,21.35
2022-08-26T05:39:04.362Z,25.15
2022-08-26T05:41:36.631Z,27.77
2022-08-26T05:44:09.421Z,21.02
2022-08-26T05:46:37.952Z,28.38
2022-08-26T05:49:06.166Z,27.98
2022-08-26T05:51:46.602Z,23.38
2022-08-26T05:54:21.986Z,23.10
2022-08-26T05:56:52.645Z,19.95
2022-08-26T05:59:24.162Z,25.67
2022-08-26T06:01:52.965Z,22.40
2022-08-26T06:04:20.386Z,30.98
2022-08-26T06:06:47.934Z,24.80
2022-08-26T06:09:18.195Z,27.90
2022-08-26T06:11:45.632Z,26.65
2022-08-26T06:14:12.994Z,32.05
2022-08-26T06:16:44.442Z,25.70
2022-08-26T06:19:15.674Z,31.73
2022-08-26T06:21:46.572Z,28.00
2022-08-26T06:24:33.757Z,21.93
2022-08-26T06:27:04.374Z,28.10
2022-08-26T06:29:34.620Z,33.03
2022-08-26T06:34:31.232Z,27.40
2022-08-26T06:37:02.787Z,29.35
2022-08-26T06:39:32.118Z,26.48
2022-08-26T06:42:00.421Z,32.75
2022-08-26T06:44:28.130Z,27.17
2022-08-26T06:46:55.702Z,25.58
2022-08-26T06:49:26.828Z,32.72
2022-08-26T06:51:58.515Z,22.17
2022-08-26T06:54:27.478Z,24.42
2022-08-26T06:56:57.040Z,28.70
2022-08-26T06:59:25.188Z,25.80
2022-08-26T07:01:53.312Z,32.92
2022-08-26T07:04:23.270Z,27.67
2022-08-26T07:06:53.580Z,22.83
2022-08-26T07:09:26.853Z,20.15
2022-08-26T07:11:56.458Z,33.30
2022-08-26T07:14:26.234Z,30.73
2022-08-26T07:16:53.894Z,20.42
2022-08-26T07:19:30.996Z,23.98
2022-08-26T07:22:04.842Z,23.20
2022-08-26T07:24:37.749Z,27.70
2022-08-26T07:27:08.801Z,25.73
2022-08-26T07:29:37.539Z,18.25
2022-08-26T07:32:05.428Z,27.70
2022-08-26T07:34:33.328Z,29.80
2022-08-26T07:37:01.388Z,27.33
2022-08-26T07:39:31.500Z,24.05
2022-08-26T07:42:01.468Z,24.98
2022-08-26T07:44:35.440Z,26.65
2022-08-26T07:47:02.817Z,27.38
2022-08-26T07:49:38.305Z,22.83
2022-08-26T07:52:06.726Z,27.40
2022-08-26T07:54:33.963Z,21.30
2022-08-26T07:57:01.725Z,23.75
2022-08-26T07:59:36.638Z,26.52
2022-08-26T08:02:03.941Z,24.75
2022-08-26T08:04:31.227Z,27.55
2022-08-26T08:06:58.600Z,23.77
2022-08-26T08:09:26.208Z,30.48
2022-08-26T08:11:54.808Z,24.35
2022-08-26T08:14:22.409Z,29.85
2022-08-26T08:16:51.208Z,24.08
2022-08-26T08:19:22.140Z,21.75
2022-08-26T08:21:49.368Z,27.00
2022-08-26T08:24:16.687Z,23.90
2022-08-26T08:26:44.028Z,26.10
2022-08-26T08:29:12.695Z,21.88
2022-08-26T08:31:57.962Z,24.50
2022-08-26T08:34:28.711Z,21.02
2022-08-26T08:36:57.485Z,21.17
2022-08-26T08:39:25.744Z,23.42
2022-08-26T08:42:13.917Z,28.63
2022-08-26T08:44:44.453Z,18.45
2022-08-26T08:47:35.592Z,25.10
2022-08-26T08:50:24.656Z,22.15
2022-08-26T08:53:17.587Z,24.13
2022-08-26T08:56:08.054Z,21.75
2022-08-26T08:58:50.048Z,27.20
2022-08-26T09:01:42.222Z,21.20
2022-08-26T09:04:27.718Z,22.10
2022-08-26T09:09:38.612Z,26.92
2022-08-26T09:12:12.825Z,25.50
2022-08-26T09:14:40.763Z,28.27
2022-08-26T09:17:39.048Z,23.77
2022-08-26T09:20:14.273Z,26.67
2022-08-26T09:22:44.201Z,24.42
2022-08-26T09:25:14.540Z,17.85
2022-08-26T09:27:46.322Z,20.45
2022-08-26T09:30:30.746Z,24.65
2022-08-26T09:33:11.087Z,23.67
2022-08-26T09:35:41.229Z,21.13
2022-08-26T09:38:26.582Z,27.73
2022-08-26T09:41:05.866Z,26.05
2022-08-26T09:43:34.597Z,25.77
2022-08-26T09:46:18.530Z,20.55
2022-08-26T09:48:45.867Z,25.35
2022-08-26T09:51:23.294Z,25.02
2022-08-26T09:53:57.006Z,21.13
2022-08-26T09:56:26.004Z,21.63
2022-08-26T09:58:56.810Z,15.17
2022-08-26T10:01:24.039Z,16.70
2022-08-26T10:03:51.986Z,18.70
2022-08-26T10:06:20.932Z,19.63
2022-08-26T10:08:59.998Z,24.73
2022-08-26T10:11:48.974Z,20.23
2022-08-26T10:14:31.874Z,26.83
2022-08-26T10:17:06.862Z,23.23
2022-08-26T10:19:58.775Z,24.52
2022-08-26T10:22:45.759Z,21.35
2022-08-26T10:25:17.535Z,22.15
2022-08-26T10:30:27.720Z,23.77
2022-08-26T10:33:07.418Z,28.08
2022-08-26T10:35:40.268Z,19.95
2022-08-26T10:38:15.930Z,25.05
2022-08-26T10:41:24.345Z,20.45
2022-08-26T10:44:03.314Z,21.83
2022-08-26T10:46:54.522Z,18.95
2022-08-26T10:49:21.809Z,16.20
2022-08-26T10:52:12.273Z,17.95
2022-08-26T10:54:55.362Z,20.58
2022-08-26T10:57:50.541Z,17.90
2022-08-26T11:00:43.906Z,17.88
2022-08-26T11:03:42.586Z,22.67
2022-08-26T11:06:18.641Z,16.73
2022-08-26T11:08:57.308Z,14.73
2022-08-26T11:11:42.533Z,21.75
2022-08-26T11:14:29.048Z,20.02
2022-08-26T11:16:59.828Z,13.50
2022-08-26T11:19:59.006Z,19.60
2022-08-26T11:22:47.592Z,18.83
2022-08-26T11:25:20.806Z,15.93
2022-08-26T11:27:54.523Z,17.45
2022-08-26T11:30:24.087Z,16.42
2022-08-26T11:32:57.373Z,17.55
2022-08-26T11:35:24.696Z,20.15
2022-08-26T11:37:58.421Z,22.00
2022-08-26T11:40:29.207Z,18.30
2022-08-26T11:42:59.777Z,19.77
2022-08-26T11:45:39.755Z,20.67
2022-08-26T11:48:16.779Z,20.05
2022-08-26T11:51:05.926Z,19.10
2022-08-26T11:53:37.308Z,14.65
2022-08-26T11:56:10.553Z,20.48
2022-08-26T11:58:44.438Z,20.30
2022-08-26T12:01:21.550Z,21.73
2022-08-26T12:03:52.430Z,22.42
2022-08-26T12:06:30.890Z,23.33
2022-08-26T12:09:05.526Z,14.70
2022-08-26T12:11:35.833Z,17.58
2022-08-26T12:14:07.561Z,17.92
2022-08-26T12:16:40.271Z,17.42
2022-08-26T12:19:34.255Z,15.05
2022-08-26T12:22:25.556Z,20.08
2022-08-26T12:24:55.551Z,14.25
2022-08-26T12:27:31.907Z,16.50
2022-08-26T12:30:13.872Z,17.45
2022-08-26T12:32:57.593Z,14.90
2022-08-26T12:35:28.967Z,14.35
2022-08-26T12:37:57.838Z,14.13
2022-08-26T12:40:30.936Z,14.35
2022-08-26T12:43:01.978Z,18.20
2022-08-26T12:45:37.121Z,13.15
2022-08-26T12:48:13.726Z,13.48
2022-08-26T12:50:48.055Z,15.20
2022-08-26T12:53:24.057Z,18.00
2022-08-26T12:56:00.478Z,14.18
2022-08-26T12:58:30.148Z,17.13
2022-08-26T13:01:04.616Z,18.73
2022-08-26T13:03:34.823Z,17.40
2022-08-26T13:06:17.222Z,10.80
2022-08-26T13:08:51.542Z,15.60
2022-08-26T13:11:21.093Z,16.55
2022-08-26T13:13:53.653Z,16.45
2022-08-26T13:16:23.267Z,16.85
2022-08-26T13:18:53.476Z,19.30
2022-08-26T13:21:24.182Z,12.52
2022-08-26T13:23:52.339Z,15.60
2022-08-26T13:26:20.298Z,21.10
2022-08-26T13:28:53.281Z,14.23
2022-08-26T13:31:31.304Z,15.40
2022-08-26T13:33:58.859Z,14.55
2022-08-26T13:36:27.045Z,15.65
2022-08-26T13:38:54.274Z,15.30
2022-08-26T13:41:29.115Z,15.07
2022-08-26T13:43:58.894Z,14.40
2022-08-26T13:46:28.523Z,19.38
2022-08-26T13:48:57.437Z,17.05
2022-08-26T13:51:27.130Z,18.13
2022-08-26T13:53:55.074Z,13.52
2022-08-26T13:56:23.064Z,10.98
2022-08-26T13:58:50.304Z,13.10
2022-08-26T14:01:17.662Z,12.02
2022-08-26T14:03:46.221Z,16.52
2022-08-26T14:06:13.973Z,11.85
2022-08-26T14:08:42.267Z,14.35
2022-08-26T14:11:10.028Z,9.85
2022-08-26T14:13:37.298Z,15.30
2022-08-26T14:16:13.382Z,17.38
2022-08-26T14:18:44.327Z,14.82
2022-08-26T14:21:14.269Z,14.77
2022-08-26T14:23:41.750Z,17.70
2022-08-26T14:26:14.329Z,15.90
2022-08-26T14:28:56.584Z,16.20
2022-08-26T14:31:24.301Z,13.75
2022-08-26T14:33:51.659Z,14.13
2022-08-26T14:36:34.119Z,14.43
2022-08-26T14:39:11.058Z,13.35
2022-08-26T14:41:55.180Z,16.67
2022-08-26T14:44:27.121Z,15.60
2022-08-26T14:49:23.610Z,13.88
2022-08-26T14:51:50.925Z,15.85
2022-08-26T14:54:19.466Z,13.57
2022-08-26T14:56:56.024Z,15.80
2022-08-26T14:59:33.086Z,13.70
2022-08-26T15:02:01.015Z,13.75
2022-08-26T15:04:28.995Z,16.92
2022-08-26T15:06:59.050Z,13.00
2022-08-26T15:09:28.080Z,12.93
2022-08-26T15:11:55.621Z,13.15
2022-08-26T15:14:23.973Z,13.85
2022-08-26T15:16:54.048Z,16.83
2022-08-26T15:19:22.710Z,13.75
2022-08-26T15:21:51.075Z,12.60
2022-08-26T15:24:21.183Z,19.75
2022-08-26T15:26:49.605Z,15.95
2022-08-26T15:29:17.436Z,19.13
2022-08-26T15:31:44.736Z,16.42
2022-08-26T15:34:16.434Z,13.27
2022-08-26T15:36:46.452Z,15.00
2022-08-26T15:39:15.756Z,15.43
2022-08-26T15:41:43.452Z,14.60
2022-08-26T15:44:11.690Z,21.88
2022-08-26T15:46:39.922Z,19.27
2022-08-26T15:49:07.605Z,19.70
2022-08-26T15:51:45.533Z,18.70
2022-08-26T15:54:14.509Z,21.65
2022-08-26T15:56:43.440Z,19.48
2022-08-26T15:59:11.851Z,19.52
2022-08-26T16:01:40.047Z,13.70
2022-08-26T16:04:07.676Z,19.73
2022-08-26T16:06:37.417Z,19.95
2022-08-26T16:09:06.380Z,20.45
2022-08-26T16:11:36.059Z,21.85
2022-08-26T16:14:04.777Z,18.15
2022-08-26T16:16:32.496Z,14.52
2022-08-26T16:19:02.270Z,13.50
2022-08-26T16:21:32.923Z,15.48
2022-08-26T16:24:00.192Z,18.20
2022-08-26T16:26:32.506Z,17.35
2022-08-26T16:29:02.084Z,17.23
2022-08-26T16:31:29.525Z,17.50
2022-08-26T16:33:56.879Z,16.85
2022-08-26T16:36:24.393Z,19.48
2022-08-26T16:38:55.740Z,23.55
2022-08-26T16:41:25.123Z,19.08
2022-08-26T16:43:53.122Z,18.83
2022-08-26T16:46:22.305Z,15.68
2022-08-26T16:48:50.116Z,13.68
2022-08-26T16:51:19.649Z,22.52
2022-08-26T16:53:47.591Z,18.15
2022-08-26T16:56:16.701Z,18.65
2022-08-26T16:58:44.317Z,19.65
2022-08-26T17:01:11.600Z,18.85
2022-08-26T17:03:38.942Z,18.83
2022-08-26T17:06:06.486Z,18.52
2022-08-26T17:08:33.855Z,14.73
2022-08-26T17:11:01.535Z,19.60
2022-08-26T17:13:35.904Z,16.70
2022-08-26T17:16:06.084Z,17.27
2022-08-26T17:18:34.226Z,19.65
2022-08-26T17:21:04.397Z,16.55
2022-08-26T17:23:31.833Z,13.93
2022-08-26T17:25:59.383Z,16.55
2022-08-26T17:28:26.790Z,18.65
2022-08-26T17:30:57.335Z,13.23
2022-08-26T17:33:25.407Z,15.52
2022-08-26T17:35:53.351Z,17.33
2022-08-26T17:38:21.353Z,20.50
2022-08-26T17:40:52.084Z,17.95
2022-08-26T17:43:19.784Z,20.23
2022-08-26T17:45:47.189Z,16.83
2022-08-26T17:48:14.506Z,22.73
2022-08-26T17:50:42.842Z,22.40
2022-08-26T17:53:12.708Z,19.23
2022-08-26T17:55:47.099Z,20.00
2022-08-26T17:58:17.784Z,24.17
2022-08-26T18:00:48.006Z,20.10
2022-08-26T18:03:16.384Z,20.52
2022-08-26T18:05:48.226Z,26.88
2022-08-26T18:08:15.739Z,18.50
2022-08-26T18:10:44.090Z,23.20
2022-08-26T18:13:11.989Z,23.65
2022-08-26T18:15:40.340Z,20.83
2022-08-26T18:18:07.921Z,23.63
2022-08-26T18:20:37.287Z,24.25
2022-08-26T18:23:05.080Z,27.48
2022-08-26T18:25:32.313Z,27.52
2022-08-26T18:27:59.941Z,24.33
2022-08-26T18:30:27.278Z,25.52
2022-08-26T18:32:54.512Z,29.55
2022-08-26T18:35:21.735Z,25.65
2022-08-26T18:37:49.009Z,30.92
2022-08-26T18:40:17.606Z,25.00
2022-08-26T18:42:45.174Z,23.05
2022-08-26T18:45:17.732Z,21.38
2022-08-26T18:47:45.043Z,23.08
2022-08-26T18:50:12.604Z,23.73
2022-08-26T18:52:40.378Z,24.58
2022-08-26T18:55:08.434Z,26.25
2022-08-26T18:57:35.719Z,21.75
2022-08-26T19:00:06.018Z,21.55
2022-08-26T19:02:34.485Z,26.35
2022-08-26T19:05:02.013Z,21.75
2022-08-26T19:07:29.345Z,24.73
2022-08-26T19:09:56.586Z,23.95
2022-08-26T19:12:24.023Z,20.27
2022-08-26T19:14:54.212Z,20.38
2022-08-26T19:17:22.661Z,25.88
2022-08-26T19:19:50.022Z,22.33
2022-08-26T19:22:17.245Z,26.05
2022-08-26T19:24:44.517Z,23.90
2022-08-26T19:27:14.916Z,25.13
2022-08-26T19:29:42.383Z,31.85
2022-08-26T19:32:09.753Z,27.95
2022-08-26T19:34:37.146Z,22.10
2022-08-26T19:37:04.667Z,20.45
2022-08-26T19:39:31.953Z,22.27
2022-08-26T19:42:00.441Z,20.85
2022-08-26T19:44:46.471Z,20.73
2022-08-26T19:47:14.164Z,22.75
2022-08-26T19:49:41.421Z,19.83
2022-08-26T19:52:09.086Z,20.63
2022-08-26T19:54:37.141Z,20.27
2022-08-26T19:57:05.410Z,20.55
2022-08-26T19:59:33.252Z,17.25
2022-08-26T20:02:01.610Z,17.80
2022-08-26T20:04:30.997Z,19.92
2022-08-26T20:07:00.710Z,17.90
2022-08-26T20:09:29.849Z,18.00
2022-08-26T20:11:57.222Z,23.85
2022-08-26T20:14:26.256Z,19.90
2022-08-26T20:16:53.984Z,24.63
2022-08-26T20:19:40.367Z,25.35
2022-08-26T20:22:08.217Z,21.38
2022-08-26T20:24:36.008Z,28.98
2022-08-26T20:27:07.693Z,26.40
2022-08-26T20:29:35.747Z,23.98
2022-08-26T20:32:06.100Z,26.88
2022-08-26T20:34:34.276Z,30.58
2022-08-26T20:37:01.790Z,37.90
2022-08-26T20:39:29.916Z,36.88
2022-08-26T20:41:58.220Z,29.30
2022-08-26T20:44:26.462Z,26.40
2022-08-26T20:46:53.761Z,24.02
2022-08-26T20:49:21.197Z,22.60
2022-08-26T20:51:52.543Z,23.65
2022-08-26T20:54:25.108Z,23.13
2022-08-26T20:56:56.716Z,19.42
2022-08-26T20:59:24.626Z,18.30
2022-08-26T21:01:51.995Z,26.35
2022-08-26T21:04:22.114Z,19.80
2022-08-26T21:06:52.939Z,19.20
2022-08-26T21:09:23.318Z,21.33
2022-08-26T21:11:51.370Z,22.88
2022-08-26T21:14:20.615Z,24.45
2022-08-26T21:16:48.019Z,20.77
2022-08-26T21:19:18.232Z,17.35
2022-08-26T21:21:47.603Z,15.70
2022-08-26T21:24:15.561Z,19.35
2022-08-26T21:26:43.100Z,19.05
2022-08-26T21:29:10.395Z,15.20
2022-08-26T21:31:43.573Z,18.83
2022-08-26T21:34:13.464Z,15.40
2022-08-26T21:36:40.749Z,18.73
2022-08-26T21:39:11.716Z,13.73
2022-08-26T21:41:40.661Z,14.48
2022-08-26T21:44:08.906Z,16.85
2022-08-26T21:46:37.455Z,15.40
2022-08-26T21:49:07.625Z,15.80
2022-08-26T21:51:37.847Z,15.32
2022-08-26T21:54:10.773Z,12.32
2022-08-26T21:56:42.216Z,13.40
2022-08-26T21:59:09.888Z,11.63
2022-08-26T22:01:38.100Z,15.25
2022-08-26T22:04:07.658Z,13.05
2022-08-26T22:06:39.867Z,13.55
2022-08-26T22:09:07.117Z,11.52
2022-08-26T22:11:34.435Z,13.57
2022-08-26T22:14:01.809Z,10.68
2022-08-26T22:16:29.106Z,11.40
2022-08-26T22:18:56.649Z,14.10
2022-08-26T22:21:27.040Z,15.20
2022-08-26T22:23:57.933Z,11.98
2022-08-26T22:26:29.398Z,12.25
2022-08-26T22:28:58.963Z,15.43
2022-08-26T22:31:37.875Z,12.75
2022-08-26T22:34:08.820Z,11.65
2022-08-26T22:36:43.050Z,10.68
2022-08-26T22:39:17.737Z,13.48
2022-08-26T22:41:48.852Z,11.00
2022-08-26T22:44:17.558Z,10.77
2022-08-26T22:46:45.893Z,9.48
2022-08-26T22:49:16.584Z,14.88
2022-08-26T22:51:47.452Z,12.95
2022-08-26T22:54:15.823Z,11.63
2022-08-26T22:56:44.836Z,14.80
2022-08-26T22:59:13.184Z,16.52
2022-08-26T23:01:43.075Z,18.55
2022-08-26T23:04:11.185Z,15.73
2022-08-26T23:06:41.341Z,18.13
2022-08-26T23:09:09.180Z,20.60
2022-08-26T23:11:39.920Z,17.80
2022-08-26T23:14:09.761Z,17.40
2022-08-26T23:16:40.116Z,13.15
2022-08-26T23:19:09.811Z,16.73
2022-08-26T23:21:37.879Z,17.55
2022-08-26T23:24:06.298Z,16.63
2022-08-26T23:26:34.924Z,17.27
2022-08-26T23:29:05.092Z,16.63
2022-08-26T23:31:32.814Z,18.52
2022-08-26T23:34:18.762Z,17.10
2022-08-26T23:36:46.982Z,17.80
2022-08-26T23:39:14.854Z,16.55
2022-08-26T23:41:42.789Z,18.85
2022-08-26T23:44:10.137Z,18.52
2022-08-26T23:46:37.402Z,15.90
2022-08-26T23:49:05.079Z,20.55
2022-08-26T23:51:50.943Z,15.35
2022-08-26T23:54:19.606Z,16.83
2022-08-26T23:56:46.915Z,16.83
2022-08-26T23:59:14.337Z,20.65
